Joffre, Pennsylvania
Current Conditions -  °F | °C
As of 5:51 PM on Saturday 25 Oct 2014 (Local Time) from KPIT Reporting Station
Broken Clouds Broken Clouds  
Wind Chill: 65°   Ceiling: 3600
Heat Index: 65°   Visibility: 10mi
Dew Point: 51°   Wind: 12mph
Humidity: 61%   Direction: 250°WSW
Pressure: 29.76"   Gusts: 26mph
Location:  40.38°N, 80.36°W
Report Text: KPIT 252151Z 25010G23KT 10SM BKN036 18/11 A2976 RMK AO2 SLP085 T01830106
Loading
Personal Weather Stations






























Interactive Weather Map
Tropical Storm Tracking
New forecast layout! Learn more

10-Day Weather Forecast

Advertisements
Track Severe Weather on mobile